Time;durP1;ratioP1;P1;durP2;ratioP2;P2;SDS_P1;SDS_P2;PMS_P1;PMS_P2;Temp;Humidity;BMP_temperature;BMP_pressure;BME280_temperature;BME280_humidity;BME280_pressure;Samples;Min_cycle;Max_cycle;Signal;HPM_P1;HPM_P2
2022/10/18 00:01:32;;;;;;;;;;;;;;;23.68;58.34;98610.92;580769;244;62831;-67
2022/10/18 00:03:59;;;;;;;;;;;;;;;23.69;57.21;98607.16;580853;244;63148;-67
2022/10/18 00:06:27;;;;;;;;;;;;;;;23.68;58.90;98608.23;580834;244;62929;-67
2022/10/18 00:08:54;;;;;;;;;;;;;;;23.69;59.13;98606.36;580813;244;62738;-67
2022/10/18 00:11:22;;;;;;;;;;;;;;;23.68;59.07;98608.23;580825;244;63027;-67
2022/10/18 00:13:49;;;;;;;;;;;;;;;23.66;58.72;98610.35;580835;244;62819;-67
2022/10/18 00:16:17;;;;;;;;;;;;;;;23.66;57.97;98607.67;580844;244;62768;-67
2022/10/18 00:18:47;;;;;;;;;;;;;;;23.66;57.68;98604.17;580814;244;63060;-67
2022/10/18 00:21:16;;;;;;;;;;;;;;;23.66;58.96;98607.67;580853;244;64786;-67
2022/10/18 00:23:44;;;;;;;;;;;;;;;23.65;58.75;98603.38;580808;244;62834;-67
2022/10/18 00:26:13;;;;;;;;;;;;;;;23.64;59.07;98607.09;580811;244;65288;-67
2022/10/18 00:28:41;;;;;;;;;;;;;;;23.64;58.63;98598.24;580491;244;65610;-67
2022/10/18 00:31:13;;;;;;;;;;;;;;;23.64;58.28;98598.24;580828;244;65017;-68
2022/10/18 00:33:41;;;;;;;;;;;;;;;23.63;58.16;98602.80;580215;244;65660;-69
2022/10/18 00:36:09;;;;;;;;;;;;;;;23.63;58.53;98592.06;580799;244;65376;-68
2022/10/18 00:38:37;;;;;;;;;;;;;;;23.62;59.17;98601.16;580805;244;66130;-68
2022/10/18 00:41:06;;;;;;;;;;;;;;;23.61;59.15;98596.06;580822;244;64015;-66
2022/10/18 00:43:34;;;;;;;;;;;;;;;23.60;58.06;98597.94;580852;244;62818;-66
2022/10/18 00:46:02;;;;;;;;;;;;;;;23.61;58.70;98593.38;580375;244;63556;-66
2022/10/18 00:48:29;;;;;;;;;;;;;;;23.61;58.58;98598.74;580802;244;62821;-66
2022/10/18 00:50:57;;;;;;;;;;;;;;;23.59;59.11;98590.92;580810;244;64839;-66
2022/10/18 00:53:24;;;;;;;;;;;;;;;23.59;58.90;98584.75;580811;244;64933;-66
2022/10/18 00:55:52;;;;;;;;;;;;;;;23.58;59.75;98594.69;580863;244;63224;-66
2022/10/18 00:58:19;;;;;;;;;;;;;;;23.58;59.37;98583.95;580819;244;62927;-66
2022/10/18 01:00:47;;;;;;;;;;;;;;;23.58;59.34;98577.78;580762;244;63837;-66
2022/10/18 01:03:14;;;;;;;;;;;;;;;23.57;59.58;98582.34;580781;244;62976;-66
2022/10/18 01:05:46;;;;;;;;;;;;;;;23.57;58.93;98576.97;580823;244;62938;-66
2022/10/18 01:08:15;;;;;;;;;;;;;;;23.56;59.21;98580.70;580854;244;65111;-67
2022/10/18 01:10:44;;;;;;;;;;;;;;;23.56;59.40;98578.02;580703;244;65334;-67
2022/10/18 01:13:13;;;;;;;;;;;;;;;23.55;59.03;98572.91;580604;244;62950;-67
2022/10/18 01:15:58;;;;;;;;;;;;;;;23.55;59.90;98562.18;580768;244;62803;-68
2022/10/18 01:18:30;;;;;;;;;;;;;;;23.54;59.27;98566.71;580785;244;66403;-70
2022/10/18 01:21:18;;;;;;;;;;;;;;;23.54;59.50;98555.98;580651;244;65419;-70
2022/10/18 01:23:50;;;;;;;;;;;;;;;23.53;59.28;98557.05;580808;244;66056;-71
2022/10/18 01:26:22;;;;;;;;;;;;;;;23.52;59.62;98560.80;580837;244;65522;-71
2022/10/18 01:28:51;;;;;;;;;;;;;;;23.51;60.43;98556.48;580797;242;62853;-71
2022/10/18 01:31:20;;;;;;;;;;;;;;;23.51;59.77;98556.48;580694;244;63698;-71
2022/10/18 01:33:49;;;;;;;;;;;;;;;23.50;59.36;98549.50;580810;244;65477;-71
2022/10/18 01:36:18;;;;;;;;;;;;;;;23.51;59.06;98550.31;580808;244;62927;-71
2022/10/18 01:38:48;;;;;;;;;;;;;;;23.50;59.81;98549.50;580776;244;65258;-71
2022/10/18 01:41:16;;;;;;;;;;;;;;;23.49;59.56;98547.89;580872;244;65733;-71
2022/10/18 01:43:45;;;;;;;;;;;;;;;23.48;60.73;98552.42;580794;244;65855;-71
2022/10/18 01:46:14;;;;;;;;;;;;;;;23.47;59.93;98552.69;580808;244;64962;-71
2022/10/18 01:48:42;;;;;;;;;;;;;;;23.47;59.20;98545.45;580728;244;65681;-71
2022/10/18 01:51:10;;;;;;;;;;;;;;;23.47;60.12;98550.01;580777;244;63958;-71
2022/10/18 01:53:37;;;;;;;;;;;;;;;23.47;60.41;98550.81;580845;244;62813;-71
2022/10/18 01:56:07;;;;;;;;;;;;;;;23.47;59.44;98544.64;580807;244;65533;-71
2022/10/18 01:58:36;;;;;;;;;;;;;;;23.47;59.67;98541.95;580808;244;66228;-71
2022/10/18 02:01:05;;;;;;;;;;;;;;;23.46;60.42;98549.20;580639;244;65047;-71
2022/10/18 02:03:34;;;;;;;;;;;;;;;23.44;60.01;98534.41;580807;241;65039;-71
2022/10/18 02:06:09;;;;;;;;;;;;;;;23.43;59.55;98541.62;580854;244;65342;-71
2022/10/18 02:08:38;;;;;;;;;;;;;;;23.46;59.77;98537.63;580775;244;66126;-71
2022/10/18 02:11:11;;;;;;;;;;;;;;;23.45;60.53;98533.34;580411;242;63258;-71
2022/10/18 02:13:40;;;;;;;;;;;;;;;23.43;60.27;98536.26;580798;244;62946;-70
2022/10/18 02:16:09;;;;;;;;;;;;;;;23.43;59.83;98538.94;580876;241;62703;-71
2022/10/18 02:18:38;;;;;;;;;;;;;;;23.42;59.67;98533.84;580808;244;65328;-71
2022/10/18 02:21:08;;;;;;;;;;;;;;;23.41;60.14;98524.99;580850;244;62932;-71
2022/10/18 02:23:36;;;;;;;;;;;;;;;23.42;60.29;98531.16;580838;244;64898;-67
2022/10/18 02:26:03;;;;;;;;;;;;;;;23.41;60.54;98534.92;580818;244;65448;-67
2022/10/18 02:28:31;;;;;;;;;;;;;;;23.40;59.58;98528.71;580834;244;64981;-67
2022/10/18 02:31:06;;;;;;;;;;;;;;;23.40;60.42;98534.08;580808;244;65708;-67
2022/10/18 02:33:44;;;;;;;;;;;;;;;23.41;60.47;98534.92;580917;241;64951;-67
2022/10/18 02:36:22;;;;;;;;;;;;;;;23.39;60.13;98532.47;580897;244;62705;-67
2022/10/18 02:38:51;;;;;;;;;;;;;;;23.40;60.50;98539.45;580974;241;62918;-67
2022/10/18 02:41:22;;;;;;;;;;;;;;;23.38;60.63;98533.55;580772;244;62815;-67
2022/10/18 02:43:50;;;;;;;;;;;;;;;23.38;60.52;98533.55;580860;244;62653;-67
2022/10/18 02:46:18;;;;;;;;;;;;;;;23.37;60.44;98534.58;580814;244;62688;-68
2022/10/18 02:48:45;;;;;;;;;;;;;;;23.36;60.49;98532.97;580832;244;65201;-68
2022/10/18 02:51:13;;;;;;;;;;;;;;;23.36;60.20;98535.66;580846;244;62684;-67
2022/10/18 02:53:40;;;;;;;;;;;;;;;23.37;60.76;98528.41;580760;244;64919;-67
2022/10/18 02:56:08;;;;;;;;;;;;;;;23.36;60.73;98529.48;580791;244;65466;-67
2022/10/18 02:58:36;;;;;;;;;;;;;;;23.35;60.63;98533.20;580779;244;66511;-67
2022/10/18 03:01:03;;;;;;;;;;;;;;;23.34;60.64;98524.35;580805;244;64898;-67
2022/10/18 03:03:31;;;;;;;;;;;;;;;23.35;60.13;98527.84;580886;244;66407;-67
2022/10/18 03:05:58;;;;;;;;;;;;;;;23.34;61.07;98527.04;580825;244;65482;-67
2022/10/18 03:08:26;;;;;;;;;;;;;;;23.34;60.61;98523.55;580811;244;64941;-68
2022/10/18 03:10:53;;;;;;;;;;;;;;;23.34;60.87;98524.35;580848;244;65979;-71
2022/10/18 03:13:20;;;;;;;;;;;;;;;23.32;59.08;98529.16;580840;244;66038;-72
2022/10/18 03:15:48;;;;;;;;;;;;;;;23.31;60.71;98534.78;580890;244;64898;-72
2022/10/18 03:18:15;;;;;;;;;;;;;;;23.32;60.40;98531.03;580835;244;64959;-72
2022/10/18 03:20:43;;;;;;;;;;;;;;;23.31;60.30;98532.91;580801;244;65114;-72
2022/10/18 03:23:10;;;;;;;;;;;;;;;23.31;60.36;98532.09;580813;244;64944;-72
2022/10/18 03:25:38;;;;;;;;;;;;;;;23.31;60.65;98529.42;580817;244;65826;-72
2022/10/18 03:28:05;;;;;;;;;;;;;;;23.30;60.49;98533.98;580897;244;65063;-72
2022/10/18 03:30:33;;;;;;;;;;;;;;;23.30;60.32;98533.14;580834;244;64927;-72
2022/10/18 03:33:00;;;;;;;;;;;;;;;23.30;60.60;98527.78;580809;244;65274;-72
2022/10/18 03:35:28;;;;;;;;;;;;;;;23.28;60.26;98538.77;580820;244;65383;-72
2022/10/18 03:37:55;;;;;;;;;;;;;;;23.29;60.77;98539.58;580849;244;64931;-72
2022/10/18 03:40:23;;;;;;;;;;;;;;;23.29;60.26;98539.58;580887;244;65096;-72
2022/10/18 03:42:50;;;;;;;;;;;;;;;23.28;60.84;98540.65;580853;244;64870;-72
2022/10/18 03:45:18;;;;;;;;;;;;;;;23.26;60.81;98538.20;580844;244;62476;-72
2022/10/18 03:47:45;;;;;;;;;;;;;;;23.26;61.68;98539.01;580814;244;63922;-72
2022/10/18 03:50:13;;;;;;;;;;;;;;;23.25;60.56;98537.39;580839;244;62663;-72
2022/10/18 03:52:40;;;;;;;;;;;;;;;23.26;60.89;98538.20;580869;244;62729;-72
2022/10/18 03:55:08;;;;;;;;;;;;;;;23.25;60.94;98539.27;580838;244;62913;-72
2022/10/18 03:57:35;;;;;;;;;;;;;;;23.24;61.12;98533.10;580854;244;64987;-72
2022/10/18 04:00:04;;;;;;;;;;;;;;;23.24;61.49;98535.78;580817;244;62872;-72
2022/10/18 04:02:35;;;;;;;;;;;;;;;23.22;60.77;98535.22;580698;243;45186;-72
2022/10/18 04:05:02;;;;;;;;;;;;;;;23.22;60.76;98535.22;580878;242;62514;-72
2022/10/18 04:07:30;;;;;;;;;;;;;;;23.21;60.77;98525.53;580881;244;63778;-73
2022/10/18 04:09:57;;;;;;;;;;;;;;;23.22;60.85;98534.41;580812;244;62754;-73
2022/10/18 04:12:25;;;;;;;;;;;;;;;23.20;60.66;98526.59;580817;244;65011;-72
2022/10/18 04:14:53;;;;;;;;;;;;;;;23.20;60.90;98528.47;580810;244;64986;-72
2022/10/18 04:17:20;;;;;;;;;;;;;;;23.20;60.36;98523.92;580660;244;65208;-72
2022/10/18 04:19:48;;;;;;;;;;;;;;;23.19;60.18;98522.30;580885;244;64752;-71
2022/10/18 04:22:15;;;;;;;;;;;;;;;23.19;61.79;98508.89;580752;244;62790;-71
2022/10/18 04:24:43;;;;;;;;;;;;;;;23.19;61.09;98524.98;580820;244;62756;-71
2022/10/18 04:27:11;;;;;;;;;;;;;;;23.19;59.58;98524.98;580844;244;64833;-71
2022/10/18 04:29:39;;;;;;;;;;;;;;;23.19;60.63;98510.74;580869;244;64940;-71
2022/10/18 04:32:06;;;;;;;;;;;;;;;23.18;60.80;98503.77;580827;244;64776;-71
2022/10/18 04:34:34;;;;;;;;;;;;;;;23.17;59.79;98500.28;580853;244;64952;-71
2022/10/18 04:37:01;;;;;;;;;;;;;;;23.17;61.29;98494.92;580820;244;64920;-71
2022/10/18 04:39:29;;;;;;;;;;;;;;;23.18;61.06;98501.09;580807;244;65513;-71
2022/10/18 04:41:56;;;;;;;;;;;;;;;23.18;60.10;98498.41;580855;244;64809;-71
2022/10/18 04:44:24;;;;;;;;;;;;;;;23.17;60.13;98494.92;580850;244;65071;-71
2022/10/18 04:46:51;;;;;;;;;;;;;;;23.19;60.85;98506.22;580841;244;65090;-71
2022/10/18 04:49:19;;;;;;;;;;;;;;;23.20;60.77;98504.34;580854;244;64849;-71
2022/10/18 04:51:46;;;;;;;;;;;;;;;23.20;60.83;98499.78;580864;244;64846;-71
2022/10/18 04:54:14;;;;;;;;;;;;;;;23.21;61.19;98497.91;580841;244;65077;-70
2022/10/18 04:56:42;;;;;;;;;;;;;;;23.22;59.94;98496.86;580861;244;65329;-70
2022/10/18 04:59:10;;;;;;;;;;;;;;;23.22;59.92;98500.34;580819;244;65023;-70
2022/10/18 05:01:37;;;;;;;;;;;;;;;23.24;60.23;98495.55;580759;244;64973;-70
2022/10/18 05:04:05;;;;;;;;;;;;;;;23.26;60.13;98495.28;580775;244;62700;-70
2022/10/18 05:06:32;;;;;;;;;;;;;;;23.28;60.08;98500.41;580835;244;65002;-70
2022/10/18 05:09:00;;;;;;;;;;;;;;;23.30;60.01;98487.54;580855;244;64998;-70
2022/10/18 05:11:27;;;;;;;;;;;;;;;23.30;59.75;98495.59;580811;244;63778;-70
2022/10/18 05:13:57;;;;;;;;;;;;;;;23.32;59.95;98498.84;580831;244;62703;-70
2022/10/18 05:16:24;;;;;;;;;;;;;;;23.33;58.83;98495.92;580849;244;62723;-70
2022/10/18 05:18:52;;;;;;;;;;;;;;;23.36;59.94;98499.97;580850;244;64458;-70
2022/10/18 05:21:20;;;;;;;;;;;;;;;23.37;59.41;98493.53;580876;244;64955;-70
2022/10/18 05:23:47;;;;;;;;;;;;;;;23.40;58.50;98498.40;580766;244;66351;-70
2022/10/18 05:26:15;;;;;;;;;;;;;;;23.41;59.55;98487.43;580824;244;65085;-70
2022/10/18 05:28:43;;;;;;;;;;;;;;;23.42;59.77;98491.72;580824;244;65254;-70
2022/10/18 05:31:11;;;;;;;;;;;;;;;23.44;59.63;98494.17;580828;244;63919;-70
2022/10/18 05:33:39;;;;;;;;;;;;;;;23.45;58.92;98493.09;580868;244;64886;-70
2022/10/18 05:36:07;;;;;;;;;;;;;;;23.47;57.85;98496.34;580816;244;64993;-70
2022/10/18 05:38:36;;;;;;;;;;;;;;;23.50;58.33;98493.16;580798;244;64943;-70
2022/10/18 05:41:04;;;;;;;;;;;;;;;23.52;57.42;98492.89;580827;244;64824;-70
2022/10/18 05:43:32;;;;;;;;;;;;;;;23.54;57.37;98494.26;580839;244;65508;-70
2022/10/18 05:45:59;;;;;;;;;;;;;;;23.55;58.75;98493.22;580843;244;62623;-70
2022/10/18 05:48:27;;;;;;;;;;;;;;;23.57;57.51;98499.15;580820;244;63611;-70
2022/10/18 05:50:55;;;;;;;;;;;;;;;23.60;58.83;98501.33;580775;244;66284;-72
2022/10/18 05:53:23;;;;;;;;;;;;;;;23.61;57.90;98496.77;580147;244;66090;-72
2022/10/18 05:55:50;;;;;;;;;;;;;;;23.61;59.32;98494.88;580687;244;62692;-72
2022/10/18 05:58:18;;;;;;;;;;;;;;;23.63;58.47;98495.45;577769;244;63685;-73
2022/10/18 06:00:46;;;;;;;;;;;;;;;23.65;58.57;98497.86;578850;243;62783;-72
2022/10/18 06:03:13;;;;;;;;;;;;;;;23.65;57.95;98498.70;583772;243;65238;-70
2022/10/18 06:05:41;;;;;;;;;;;;;;;23.67;58.56;98496.55;583832;243;64942;-67
2022/10/18 06:08:08;;;;;;;;;;;;;;;23.69;56.43;98493.63;583786;243;64915;-73
2022/10/18 06:10:37;;;;;;;;;;;;;;;23.70;56.63;98500.60;583834;243;64805;-72
2022/10/18 06:13:05;;;;;;;;;;;;;;;23.70;56.87;98490.67;584682;240;64856;-70
2022/10/18 06:15:32;;;;;;;;;;;;;;;23.70;56.52;98498.72;590206;240;62915;-70
2022/10/18 06:18:00;;;;;;;;;;;;;;;23.72;56.40;98492.34;590242;240;63063;-70
2022/10/18 06:20:27;;;;;;;;;;;;;;;23.74;56.74;98496.40;590196;240;65241;-70
2022/10/18 06:22:55;;;;;;;;;;;;;;;23.75;55.17;98498.01;590228;240;65040;-70
2022/10/18 06:25:24;;;;;;;;;;;;;;;23.78;55.07;98497.50;590330;240;64826;-69
2022/10/18 06:27:51;;;;;;;;;;;;;;;23.80;56.06;98499.94;590208;240;62814;-70
2022/10/18 06:30:19;;;;;;;;;;;;;;;23.81;55.30;98488.12;590201;240;63666;-68
2022/10/18 06:32:46;;;;;;;;;;;;;;;23.82;55.10;98487.09;590287;240;64274;-70
2022/10/18 06:35:14;;;;;;;;;;;;;;;23.83;54.85;98492.18;590226;240;62960;-70
2022/10/18 06:37:41;;;;;;;;;;;;;;;23.84;55.55;98487.62;590102;240;62505;-68
2022/10/18 06:40:09;;;;;;;;;;;;;;;23.86;54.54;98488.19;590176;240;62802;-70
2022/10/18 06:42:37;;;;;;;;;;;;;;;23.87;54.72;98484.42;590184;240;64934;-72
2022/10/18 06:45:05;;;;;;;;;;;;;;;23.89;54.31;98480.42;590265;240;62709;-74
2022/10/18 06:47:33;;;;;;;;;;;;;;;23.89;55.39;98485.80;590163;240;64665;-73
2022/10/18 06:50:00;;;;;;;;;;;;;;;23.90;54.74;98483.94;590188;240;65065;-71
2022/10/18 06:52:28;;;;;;;;;;;;;;;23.90;55.41;98486.63;589699;240;62487;-71
2022/10/18 06:54:54;;;;;;;;;;;;;;;;;;589686;240;61687;-72
2022/10/18 06:57:22;;;;;;;;;;;;;;;23.90;53.84;98475.89;590169;240;65334;-71
2022/10/18 06:59:50;;;;;;;;;;;;;;;23.88;53.56;98473.44;590188;240;64815;-70
2022/10/18 07:02:18;;;;;;;;;;;;;;;23.89;52.26;98475.05;587560;240;64828;-70
2022/10/18 07:04:45;;;;;;;;;;;;;;;23.88;52.58;98468.07;587015;241;64877;-67
2022/10/18 07:07:13;;;;;;;;;;;;;;;23.90;51.93;98462.46;587026;241;65486;-67
2022/10/18 07:09:39;;;;;;;;;;;;;;;;;;587055;241;64772;-67
2022/10/18 07:12:07;;;;;;;;;;;;;;;23.89;51.93;98467.00;587010;241;62983;-67
2022/10/18 07:14:34;;;;;;;;;;;;;;;23.89;52.48;98467.00;586993;241;62960;-67
2022/10/18 07:17:02;;;;;;;;;;;;;;;23.90;52.08;98454.41;587102;241;63036;-68
2022/10/18 07:19:29;;;;;;;;;;;;;;;23.91;52.10;98447.96;586977;241;63076;-67
2022/10/18 07:21:57;;;;;;;;;;;;;;;23.89;51.51;98445.52;587061;241;62789;-67
2022/10/18 07:24:23;;;;;;;;;;;;;;;;;;586968;241;64770;-69
2022/10/18 07:26:51;;;;;;;;;;;;;;;23.91;51.51;98450.64;587050;241;63764;-71
2022/10/18 07:29:17;;;;;;;;;;;;;;;;;;587020;241;64815;-71
2022/10/18 07:31:44;;;;;;;;;;;;;;;;;;587055;241;64956;-72
2022/10/18 07:34:12;;;;;;;;;;;;;;;23.91;51.81;98447.96;587064;241;65174;-72
2022/10/18 07:36:38;;;;;;;;;;;;;;;;;;586975;241;64956;-73
2022/10/18 07:39:06;;;;;;;;;;;;;;;23.92;52.05;98446.88;587017;241;64936;-71
2022/10/18 07:41:33;;;;;;;;;;;;;;;23.93;52.44;98443.16;587015;241;64911;-71
2022/10/18 07:44:01;;;;;;;;;;;;;;;23.93;51.99;98438.59;587074;241;63057;-71
2022/10/18 07:46:29;;;;;;;;;;;;;;;23.94;53.00;98444.77;586978;241;62783;-71
2022/10/18 07:48:58;;;;;;;;;;;;;;;23.95;53.31;98437.51;587040;241;62806;-71
2022/10/18 07:51:26;;;;;;;;;;;;;;;23.96;52.25;98439.15;587037;241;65553;-70
2022/10/18 07:53:54;;;;;;;;;;;;;;;23.97;52.82;98430.82;586899;241;63637;-70
2022/10/18 07:56:22;;;;;;;;;;;;;;;23.98;52.35;98432.46;587064;241;62794;-70
2022/10/18 07:58:51;;;;;;;;;;;;;;;23.99;52.29;98422.52;586948;241;63341;-72
2022/10/18 08:01:20;;;;;;;;;;;;;;;24.00;55.07;98424.13;587399;238;65218;-72
2022/10/18 08:03:47;;;;;;;;;;;;;;;24.00;52.95;98418.76;588343;241;63869;-74
2022/10/18 08:06:17;;;;;;;;;;;;;;;24.00;52.89;98419.56;588277;241;65688;-77
2022/10/18 08:08:45;;;;;;;;;;;;;;;24.01;52.94;98409.63;588278;241;63244;-72
2022/10/18 08:11:14;;;;;;;;;;;;;;;24.01;53.62;98407.78;588337;241;62942;-72
2022/10/18 08:13:42;;;;;;;;;;;;;;;24.01;53.61;98399.72;584601;238;65292;-72
2022/10/18 08:16:11;;;;;;;;;;;;;;;24.02;53.76;98400.52;580626;241;63154;-70
2022/10/18 08:18:39;;;;;;;;;;;;;;;24.01;54.53;98394.35;581244;244;65071;-73
2022/10/18 08:21:08;;;;;;;;;;;;;;;24.02;53.02;98387.09;581273;244;63252;-70
2022/10/18 08:23:37;;;;;;;;;;;;;;;24.01;52.93;98386.30;581342;244;62923;-71
2022/10/18 08:26:05;;;;;;;;;;;;;;;24.02;53.07;98387.09;581314;244;63049;-69
2022/10/18 08:28:35;;;;;;;;;;;;;;;24.03;52.56;98383.33;581284;244;65587;-70
2022/10/18 08:31:03;;;;;;;;;;;;;;;24.03;52.84;98378.77;581309;240;65448;-72
2022/10/18 08:33:31;;;;;;;;;;;;;;;24.03;53.25;98370.71;581302;244;64995;-71
2022/10/18 08:35:59;;;;;;;;;;;;;;;24.04;52.11;98363.48;581359;244;64174;-69
2022/10/18 08:38:30;;;;;;;;;;;;;;;24.05;52.17;98365.90;581303;244;65373;-69
2022/10/18 08:41:15;;;;;;;;;;;;;;;24.05;52.52;98359.72;581247;244;67649;-70
2022/10/18 08:43:44;;;;;;;;;;;;;;;24.06;53.57;98353.27;581246;244;65324;-70
2022/10/18 08:46:12;;;;;;;;;;;;;;;24.07;53.96;98352.22;580663;244;65082;-69
2022/10/18 08:48:44;;;;;;;;;;;;;;;24.07;51.91;98349.54;577284;244;65428;-67
2022/10/18 08:51:29;;;;;;;;;;;;;;;24.08;53.80;98345.77;577678;244;63130;-72
2022/10/18 08:54:08;;;;;;;;;;;;;;;24.08;52.37;98345.77;580955;243;65467;-71
2022/10/18 08:56:36;;;;;;;;;;;;;;;24.13;52.96;98348.50;580882;243;64944;-71
2022/10/18 08:59:05;;;;;;;;;;;;;;;24.16;52.34;98337.23;580958;244;65582;-70
2022/10/18 09:01:37;;;;;;;;;;;;;;;24.19;53.30;98341.28;580649;244;64788;-70
2022/10/18 09:04:09;;;;;;;;;;;;;;;24.21;53.50;98344.52;580059;244;65737;-70
2022/10/18 09:06:40;;;;;;;;;;;;;;;24.25;54.63;98338.34;580164;244;63141;-69
2022/10/18 09:09:18;;;;;;;;;;;;;;;24.27;53.45;98332.73;580376;244;63284;-68
2022/10/18 09:12:02;;;;;;;;;;;;;;;24.28;52.31;98323.59;580269;244;62807;-70
2022/10/18 09:14:47;;;;;;;;;;;;;;;24.29;53.30;98325.22;580208;244;65764;-71
2022/10/18 09:17:22;;;;;;;;;;;;;;;24.33;53.42;98323.63;580434;244;65252;-70
2022/10/18 09:20:00;;;;;;;;;;;;;;;24.34;53.81;98325.25;580301;244;63041;-68
2022/10/18 09:22:35;;;;;;;;;;;;;;;24.34;53.92;98318.00;579991;244;63355;-68
2022/10/18 09:25:13;;;;;;;;;;;;;;;24.37;53.39;98327.41;580207;244;66372;-69
2022/10/18 09:27:48;;;;;;;;;;;;;;;24.39;53.66;98319.91;580300;244;65525;-68
2022/10/18 09:30:35;;;;;;;;;;;;;;;24.41;53.36;98316.95;580427;244;63045;-68
2022/10/18 09:33:07;;;;;;;;;;;;;;;24.42;53.01;98308.63;580286;244;63981;-69
2022/10/18 09:35:36;;;;;;;;;;;;;;;24.43;53.45;98310.23;580367;244;63062;-69
2022/10/18 09:38:05;;;;;;;;;;;;;;;24.45;53.35;98299.27;579477;244;65835;-69
2022/10/18 09:40:35;;;;;;;;;;;;;;;24.46;54.04;98300.87;580390;244;65151;-69
2022/10/18 09:43:19;;;;;;;;;;;;;;;24.46;53.87;98293.63;580452;244;65817;-69
2022/10/18 09:45:47;;;;;;;;;;;;;;;24.48;53.69;98291.48;580456;243;65616;-69
2022/10/18 09:48:22;;;;;;;;;;;;;;;24.49;52.81;98289.60;580378;244;65108;-70
2022/10/18 09:51:06;;;;;;;;;;;;;;;24.50;55.07;98280.45;580123;241;66999;-69
2022/10/18 09:53:36;;;;;;;;;;;;;;;24.51;53.21;98280.20;582350;241;65599;-70
2022/10/18 09:56:08;;;;;;;;;;;;;;;24.52;52.82;98271.06;578786;241;65041;-69
2022/10/18 09:58:44;;;;;;;;;;;;;;;24.53;52.33;98264.64;578575;244;64929;-69
2022/10/18 10:01:13;;;;;;;;;;;;;;;24.51;52.38;98258.71;577973;245;63099;-68
2022/10/18 10:03:41;;;;;;;;;;;;;;;24.56;54.28;98256.05;576574;246;62949;-67
2022/10/18 10:06:16;;;;;;;;;;;;;;;24.56;54.11;98249.87;577124;241;64901;-68
2022/10/18 10:08:45;;;;;;;;;;;;;;;24.57;54.23;98244.21;577799;245;63028;-67
2022/10/18 10:11:30;;;;;;;;;;;;;;;24.58;53.57;98242.33;577795;244;65389;-69
2022/10/18 10:13:59;;;;;;;;;;;;;;;24.58;52.71;98243.16;577851;245;64963;-68
2022/10/18 10:16:27;;;;;;;;;;;;;;;24.59;55.07;98234.01;577705;244;65699;-68
2022/10/18 10:18:55;;;;;;;;;;;;;;;24.59;54.82;98236.70;577857;245;64779;-68
2022/10/18 10:21:24;;;;;;;;;;;;;;;24.62;54.48;98221.12;577772;245;64956;-68
2022/10/18 10:23:52;;;;;;;;;;;;;;;24.62;54.84;98221.12;577743;245;65530;-68
2022/10/18 10:26:21;;;;;;;;;;;;;;;24.63;54.31;98222.72;577852;245;63445;-67
2022/10/18 10:28:49;;;;;;;;;;;;;;;24.63;55.17;98218.15;577732;244;62786;-70
2022/10/18 10:31:18;;;;;;;;;;;;;;;24.65;52.57;98209.83;577766;245;66569;-67
2022/10/18 10:33:47;;;;;;;;;;;;;;;24.64;53.14;98211.72;577832;245;65313;-67
2022/10/18 10:36:18;;;;;;;;;;;;;;;24.62;53.47;98204.99;577758;245;65043;-67
2022/10/18 10:38:45;;;;;;;;;;;;;;;24.61;52.77;98208.73;577710;245;65474;-67
2022/10/18 10:41:20;;;;;;;;;;;;;;;24.57;53.43;98203.89;577825;245;64961;-67
2022/10/18 10:43:48;;;;;;;;;;;;;;;24.56;53.75;98196.12;577876;245;64911;-67
2022/10/18 10:46:21;;;;;;;;;;;;;;;24.56;53.11;98191.54;576984;245;64886;-68
2022/10/18 10:48:53;;;;;;;;;;;;;;;24.54;52.99;98196.37;577755;245;62715;-68
2022/10/18 10:51:31;;;;;;;;;;;;;;;24.55;51.66;98194.48;577797;245;64949;-67
2022/10/18 10:54:12;;;;;;;;;;;;;;;24.54;51.95;98179.44;577790;245;66525;-72
2022/10/18 10:56:56;;;;;;;;;;;;;;;24.54;52.35;98176.75;577853;244;62931;-70
2022/10/18 10:59:25;;;;;;;;;;;;;;;24.53;52.67;98175.16;577791;245;63015;-68
2022/10/18 11:02:11;;;;;;;;;;;;;;;24.53;51.69;98170.58;581553;243;65007;-70
2022/10/18 11:04:39;;;;;;;;;;;;;;;24.53;52.91;98165.20;585005;240;65241;-66
2022/10/18 11:07:27;;;;;;;;;;;;;;;24.53;52.19;98156.34;583512;240;66317;-70
2022/10/18 11:09:57;;;;;;;;;;;;;;;24.52;51.67;98155.50;583696;243;65608;-68
2022/10/18 11:12:26;;;;;;;;;;;;;;;24.53;52.36;98154.45;583380;243;65241;-69
2022/10/18 11:15:12;;;;;;;;;;;;;;;24.53;51.47;98151.77;583549;243;62462;-68
2022/10/18 11:17:41;;;;;;;;;;;;;;;24.52;51.55;98144.76;583591;243;65444;-69
2022/10/18 11:20:15;;;;;;;;;;;;;;;24.52;51.23;98146.64;583564;243;65221;-72
2022/10/18 11:22:53;;;;;;;;;;;;;;;24.51;52.36;98145.84;583651;243;65292;-68
2022/10/18 11:25:22;;;;;;;;;;;;;;;24.52;52.63;98136.70;583583;243;63397;-67
2022/10/18 11:27:55;;;;;;;;;;;;;;;24.52;51.64;98133.20;583750;243;62856;-67
2022/10/18 11:30:33;;;;;;;;;;;;;;;24.52;52.06;98131.32;583792;243;64919;-68
2022/10/18 11:33:02;;;;;;;;;;;;;;;24.51;51.17;98127.03;583733;243;65369;-67
2022/10/18 11:35:34;;;;;;;;;;;;;;;24.52;52.02;98131.32;582921;243;65707;-67
2022/10/18 11:38:03;;;;;;;;;;;;;;;24.51;51.07;98124.34;582872;243;65018;-68
2022/10/18 11:40:36;;;;;;;;;;;;;;;24.51;51.26;98113.59;583747;243;65222;-68
2022/10/18 11:43:21;;;;;;;;;;;;;;;24.51;51.04;98105.53;583680;243;63151;-68
2022/10/18 11:46:02;;;;;;;;;;;;;;;24.52;51.16;98109.83;583826;243;62889;-68
2022/10/18 11:48:34;;;;;;;;;;;;;;;24.52;52.03;98098.27;583614;243;63340;-69
2022/10/18 11:51:20;;;;;;;;;;;;;;;24.52;52.96;98092.90;583694;243;63067;-68
2022/10/18 11:53:49;;;;;;;;;;;;;;;24.52;54.04;98099.08;583743;243;63052;-69
2022/10/18 11:56:30;;;;;;;;;;;;;;;24.50;51.44;98086.98;583710;240;66441;-68
2022/10/18 11:59:03;;;;;;;;;;;;;;;24.51;52.36;98091.30;583838;243;65382;-70
2022/10/18 12:01:38;;;;;;;;;;;;;;;24.50;51.65;98084.30;576273;243;65465;-70
2022/10/18 12:04:07;;;;;;;;;;;;;;;24.49;51.68;98083.48;583817;243;65200;-70
2022/10/18 12:06:36;;;;;;;;;;;;;;;24.49;52.39;98075.43;583905;243;65328;-70
2022/10/18 12:09:11;;;;;;;;;;;;;;;24.50;53.03;98070.86;583816;243;64888;-69
2022/10/18 12:11:40;;;;;;;;;;;;;;;24.49;51.33;98075.43;581635;243;65790;-69
2022/10/18 12:14:09;;;;;;;;;;;;;;;24.49;50.91;98061.99;583884;243;62966;-69
2022/10/18 12:16:38;;;;;;;;;;;;;;;24.48;51.59;98055.02;583584;243;64969;-68
2022/10/18 12:19:07;;;;;;;;;;;;;;;24.49;52.38;98058.50;583827;243;65613;-70
2022/10/18 12:21:37;;;;;;;;;;;;;;;24.48;52.01;98055.02;583757;243;65128;-72
2022/10/18 12:24:09;;;;;;;;;;;;;;;24.48;50.94;98055.02;583842;243;62672;-70
2022/10/18 12:26:37;;;;;;;;;;;;;;;24.48;50.99;98052.33;583732;243;65574;-70
2022/10/18 12:29:18;;;;;;;;;;;;;;;24.48;50.84;98054.22;583855;243;65218;-73
2022/10/18 12:31:47;;;;;;;;;;;;;;;24.49;52.21;98050.45;583765;243;62690;-68
2022/10/18 12:34:16;;;;;;;;;;;;;;;24.45;49.53;98049.39;583888;243;66112;-71
2022/10/18 12:37:02;;;;;;;;;;;;;;;24.48;49.51;98044.27;580352;240;62943;-71
2022/10/18 12:39:40;;;;;;;;;;;;;;;24.50;48.96;98041.30;584520;240;64914;-70
2022/10/18 12:42:18;;;;;;;;;;;;;;;24.51;49.87;98038.36;585796;240;65362;-70
2022/10/18 12:44:46;;;;;;;;;;;;;;;24.52;49.83;98033.78;584813;240;61053;-70
2022/10/18 12:47:21;;;;;;;;;;;;;;;24.53;49.99;98024.66;587802;240;64952;-73
2022/10/18 12:49:51;;;;;;;;;;;;;;;24.54;50.54;98028.95;586901;240;65580;-71
2022/10/18 12:52:25;;;;;;;;;;;;;;;24.50;52.13;98020.63;583617;240;64794;-70
2022/10/18 12:55:09;;;;;;;;;;;;;;;24.48;51.51;98019.28;584792;240;62812;-69
2022/10/18 12:57:53;;;;;;;;;;;;;;;24.46;52.65;98019.55;587094;240;65496;-70
2022/10/18 13:00:25;;;;;;;;;;;;;;;24.45;53.59;98017.94;585107;240;65545;-69
2022/10/18 13:02:55;;;;;;;;;;;;;;;24.42;53.07;98017.63;587109;241;65167;-69
2022/10/18 13:05:40;;;;;;;;;;;;;;;24.42;51.84;98015.77;581791;241;62999;-70